KCDS

Childress Municipal Airport

Childress, Texas, USA
METAR KCDS 181553Z AUTO 00000KT 10SM CLR 06/M01 A3017 RMK AO2 SLP220 T00611011
Observed Flight Rules
Dec-18 @ 15:53 UTC (36 minutes ago) Visual Flight Rules
Wind Visibility Clouds
Calm 10 miles
  • Clear skies
Temperatures Readings
Current 6°C / 43°F
Dewpoint -1°C / 30°F
Humidity 61%
Altimeter 30.17" Hg
Pressure 1022 hPa
Elevation 594
METAR KCDS 181553Z AUTO 00000KT 10SM CLR 06/M01 A3017 RMK AO2 SLP220 T00611011
Observed Flight Rules
Dec-18 @ 15:53 UTC
(36 minutes ago)
VFR
Wind Visibility
Calm 10 miles
Clouds
  • Clear skies
Temperature Dewpoint
6°C / 43°F -1°C / 30°F
Humidity Altimeter Pressure
61% 30.17" Hg 1022 hPa